sensor_id;sensor_type;location;lat;lon;timestamp;P1;durP1;ratioP1;P2;durP2;ratioP2
58581;SDS011;44361;51.476;5.700;2023-04-25T00:01:38;10.60;;;2.53;;
58581;SDS011;44361;51.476;5.700;2023-04-25T00:04:03;13.35;;;3.13;;
58581;SDS011;44361;51.476;5.700;2023-04-25T00:06:31;10.82;;;3.00;;
58581;SDS011;44361;51.476;5.700;2023-04-25T00:08:57;6.05;;;2.40;;
58581;SDS011;44361;51.476;5.700;2023-04-25T00:11:23;13.60;;;3.22;;
58581;SDS011;44361;51.476;5.700;2023-04-25T00:13:49;21.77;;;3.08;;
58581;SDS011;44361;51.476;5.700;2023-04-25T00:16:19;8.77;;;2.78;;
58581;SDS011;44361;51.476;5.700;2023-04-25T00:18:44;14.13;;;2.70;;
58581;SDS011;44361;51.476;5.700;2023-04-25T00:21:16;11.73;;;2.60;;
58581;SDS011;44361;51.476;5.700;2023-04-25T00:23:45;6.65;;;2.72;;
58581;SDS011;44361;51.476;5.700;2023-04-25T00:26:11;6.85;;;2.10;;
58581;SDS011;44361;51.476;5.700;2023-04-25T00:28:36;7.13;;;2.55;;
58581;SDS011;44361;51.476;5.700;2023-04-25T00:31:02;9.60;;;2.42;;
58581;SDS011;44361;51.476;5.700;2023-04-25T00:33:28;9.07;;;2.42;;
58581;SDS011;44361;51.476;5.700;2023-04-25T00:35:55;13.07;;;2.83;;
58581;SDS011;44361;51.476;5.700;2023-04-25T00:38:20;7.07;;;2.10;;
58581;SDS011;44361;51.476;5.700;2023-04-25T00:40:46;16.40;;;2.53;;
58581;SDS011;44361;51.476;5.700;2023-04-25T00:43:12;10.93;;;2.90;;
58581;SDS011;44361;51.476;5.700;2023-04-25T00:45:38;7.28;;;2.25;;
58581;SDS011;44361;51.476;5.700;2023-04-25T00:48:04;11.23;;;2.47;;
58581;SDS011;44361;51.476;5.700;2023-04-25T00:50:30;6.70;;;2.47;;
58581;SDS011;44361;51.476;5.700;2023-04-25T00:52:57;16.95;;;3.03;;
58581;SDS011;44361;51.476;5.700;2023-04-25T00:55:23;12.73;;;2.55;;
58581;SDS011;44361;51.476;5.700;2023-04-25T00:57:49;9.55;;;2.42;;
58581;SDS011;44361;51.476;5.700;2023-04-25T01:00:15;8.38;;;2.13;;
58581;SDS011;44361;51.476;5.700;2023-04-25T01:02:41;10.18;;;2.67;;
58581;SDS011;44361;51.476;5.700;2023-04-25T01:05:07;9.82;;;2.72;;
58581;SDS011;44361;51.476;5.700;2023-04-25T01:07:33;8.18;;;2.53;;
58581;SDS011;44361;51.476;5.700;2023-04-25T01:09:59;11.93;;;2.45;;
58581;SDS011;44361;51.476;5.700;2023-04-25T01:12:26;13.88;;;3.17;;
58581;SDS011;44361;51.476;5.700;2023-04-25T01:14:51;10.50;;;2.28;;
58581;SDS011;44361;51.476;5.700;2023-04-25T01:17:17;15.07;;;2.60;;
58581;SDS011;44361;51.476;5.700;2023-04-25T01:19:43;12.52;;;3.17;;
58581;SDS011;44361;51.476;5.700;2023-04-25T01:22:12;7.25;;;2.85;;
58581;SDS011;44361;51.476;5.700;2023-04-25T01:24:39;9.15;;;2.75;;
58581;SDS011;44361;51.476;5.700;2023-04-25T01:27:05;8.88;;;2.67;;
58581;SDS011;44361;51.476;5.700;2023-04-25T01:29:33;12.40;;;2.63;;
58581;SDS011;44361;51.476;5.700;2023-04-25T01:32:00;13.60;;;2.53;;
58581;SDS011;44361;51.476;5.700;2023-04-25T01:34:26;14.75;;;3.10;;
58581;SDS011;44361;51.476;5.700;2023-04-25T01:36:52;14.70;;;3.10;;
58581;SDS011;44361;51.476;5.700;2023-04-25T01:39:18;6.80;;;2.65;;
58581;SDS011;44361;51.476;5.700;2023-04-25T01:41:45;13.27;;;3.00;;
58581;SDS011;44361;51.476;5.700;2023-04-25T01:44:11;9.57;;;3.10;;
58581;SDS011;44361;51.476;5.700;2023-04-25T01:46:37;15.07;;;3.65;;
58581;SDS011;44361;51.476;5.700;2023-04-25T01:49:02;16.67;;;3.10;;
58581;SDS011;44361;51.476;5.700;2023-04-25T01:51:28;12.82;;;3.13;;
58581;SDS011;44361;51.476;5.700;2023-04-25T01:53:55;12.55;;;3.63;;
58581;SDS011;44361;51.476;5.700;2023-04-25T01:56:21;13.63;;;3.47;;
58581;SDS011;44361;51.476;5.700;2023-04-25T01:58:46;12.23;;;3.28;;
58581;SDS011;44361;51.476;5.700;2023-04-25T02:01:12;12.82;;;3.90;;
58581;SDS011;44361;51.476;5.700;2023-04-25T02:03:38;18.88;;;4.95;;
58581;SDS011;44361;51.476;5.700;2023-04-25T02:06:03;16.48;;;4.93;;
58581;SDS011;44361;51.476;5.700;2023-04-25T02:08:29;15.93;;;3.30;;
58581;SDS011;44361;51.476;5.700;2023-04-25T02:10:55;12.55;;;3.72;;
58581;SDS011;44361;51.476;5.700;2023-04-25T02:13:20;14.18;;;3.80;;
58581;SDS011;44361;51.476;5.700;2023-04-25T02:15:46;12.10;;;3.83;;
58581;SDS011;44361;51.476;5.700;2023-04-25T02:18:11;9.85;;;3.75;;
58581;SDS011;44361;51.476;5.700;2023-04-25T02:20:37;14.30;;;4.07;;
58581;SDS011;44361;51.476;5.700;2023-04-25T02:23:03;13.98;;;3.92;;
58581;SDS011;44361;51.476;5.700;2023-04-25T02:25:29;12.75;;;3.22;;
58581;SDS011;44361;51.476;5.700;2023-04-25T02:27:54;12.57;;;3.58;;
58581;SDS011;44361;51.476;5.700;2023-04-25T02:30:20;12.02;;;3.90;;
58581;SDS011;44361;51.476;5.700;2023-04-25T02:32:45;15.60;;;3.83;;
58581;SDS011;44361;51.476;5.700;2023-04-25T02:35:11;15.25;;;3.30;;
58581;SDS011;44361;51.476;5.700;2023-04-25T02:37:37;14.05;;;4.22;;
58581;SDS011;44361;51.476;5.700;2023-04-25T02:40:03;10.27;;;3.65;;
58581;SDS011;44361;51.476;5.700;2023-04-25T02:42:30;20.10;;;4.35;;
58581;SDS011;44361;51.476;5.700;2023-04-25T02:44:56;13.60;;;3.17;;
58581;SDS011;44361;51.476;5.700;2023-04-25T02:47:21;13.45;;;4.07;;
58581;SDS011;44361;51.476;5.700;2023-04-25T02:49:47;11.63;;;3.97;;
58581;SDS011;44361;51.476;5.700;2023-04-25T02:52:12;11.07;;;3.30;;
58581;SDS011;44361;51.476;5.700;2023-04-25T02:54:39;9.63;;;4.15;;
58581;SDS011;44361;51.476;5.700;2023-04-25T02:57:05;14.90;;;3.35;;
58581;SDS011;44361;51.476;5.700;2023-04-25T02:59:31;13.07;;;3.70;;
58581;SDS011;44361;51.476;5.700;2023-04-25T03:01:56;15.75;;;3.88;;
58581;SDS011;44361;51.476;5.700;2023-04-25T03:04:22;11.38;;;3.70;;
58581;SDS011;44361;51.476;5.700;2023-04-25T03:06:48;15.35;;;4.03;;
58581;SDS011;44361;51.476;5.700;2023-04-25T03:09:14;12.00;;;3.78;;
58581;SDS011;44361;51.476;5.700;2023-04-25T03:11:40;12.68;;;4.10;;
58581;SDS011;44361;51.476;5.700;2023-04-25T03:14:06;9.77;;;3.55;;
58581;SDS011;44361;51.476;5.700;2023-04-25T03:16:31;17.10;;;3.80;;
58581;SDS011;44361;51.476;5.700;2023-04-25T03:18:57;13.50;;;4.15;;
58581;SDS011;44361;51.476;5.700;2023-04-25T03:21:22;15.82;;;4.00;;
58581;SDS011;44361;51.476;5.700;2023-04-25T03:23:48;20.23;;;3.80;;
58581;SDS011;44361;51.476;5.700;2023-04-25T03:26:14;19.67;;;4.10;;
58581;SDS011;44361;51.476;5.700;2023-04-25T03:28:41;13.07;;;3.65;;
58581;SDS011;44361;51.476;5.700;2023-04-25T03:31:06;23.25;;;4.32;;
58581;SDS011;44361;51.476;5.700;2023-04-25T03:33:32;10.43;;;3.80;;
58581;SDS011;44361;51.476;5.700;2023-04-25T03:35:57;11.18;;;4.35;;
58581;SDS011;44361;51.476;5.700;2023-04-25T03:38:23;13.10;;;3.80;;
58581;SDS011;44361;51.476;5.700;2023-04-25T03:40:49;9.45;;;4.00;;
58581;SDS011;44361;51.476;5.700;2023-04-25T03:43:15;14.27;;;4.50;;
58581;SDS011;44361;51.476;5.700;2023-04-25T03:45:41;14.13;;;3.70;;
58581;SDS011;44361;51.476;5.700;2023-04-25T03:48:07;14.45;;;3.55;;
58581;SDS011;44361;51.476;5.700;2023-04-25T03:50:33;11.35;;;3.60;;
58581;SDS011;44361;51.476;5.700;2023-04-25T03:52:58;11.43;;;3.78;;
58581;SDS011;44361;51.476;5.700;2023-04-25T03:55:24;18.70;;;4.07;;
58581;SDS011;44361;51.476;5.700;2023-04-25T03:57:49;16.30;;;3.60;;
58581;SDS011;44361;51.476;5.700;2023-04-25T04:00:15;13.05;;;3.50;;
58581;SDS011;44361;51.476;5.700;2023-04-25T04:02:40;12.82;;;3.35;;
58581;SDS011;44361;51.476;5.700;2023-04-25T04:05:06;14.90;;;4.40;;
58581;SDS011;44361;51.476;5.700;2023-04-25T04:07:32;14.93;;;3.33;;
58581;SDS011;44361;51.476;5.700;2023-04-25T04:09:58;13.27;;;3.67;;
58581;SDS011;44361;51.476;5.700;2023-04-25T04:12:24;15.07;;;4.30;;
58581;SDS011;44361;51.476;5.700;2023-04-25T04:14:49;15.10;;;3.63;;
58581;SDS011;44361;51.476;5.700;2023-04-25T04:17:15;13.00;;;3.10;;
58581;SDS011;44361;51.476;5.700;2023-04-25T04:19:41;16.00;;;3.80;;
58581;SDS011;44361;51.476;5.700;2023-04-25T04:22:06;8.25;;;3.75;;
58581;SDS011;44361;51.476;5.700;2023-04-25T04:24:32;19.60;;;3.95;;
58581;SDS011;44361;51.476;5.700;2023-04-25T04:26:57;12.35;;;3.50;;
58581;SDS011;44361;51.476;5.700;2023-04-25T04:29:23;12.80;;;3.60;;
58581;SDS011;44361;51.476;5.700;2023-04-25T04:31:50;13.45;;;3.92;;
58581;SDS011;44361;51.476;5.700;2023-04-25T04:34:17;11.23;;;3.83;;
58581;SDS011;44361;51.476;5.700;2023-04-25T04:36:43;19.05;;;3.72;;
58581;SDS011;44361;51.476;5.700;2023-04-25T04:39:12;13.80;;;3.22;;
58581;SDS011;44361;51.476;5.700;2023-04-25T04:41:38;18.75;;;4.72;;
58581;SDS011;44361;51.476;5.700;2023-04-25T04:44:05;12.88;;;5.05;;
58581;SDS011;44361;51.476;5.700;2023-04-25T04:46:31;13.35;;;4.07;;
58581;SDS011;44361;51.476;5.700;2023-04-25T04:49:02;15.75;;;3.75;;
58581;SDS011;44361;51.476;5.700;2023-04-25T04:51:29;14.63;;;4.10;;
58581;SDS011;44361;51.476;5.700;2023-04-25T04:53:56;15.90;;;3.88;;
58581;SDS011;44361;51.476;5.700;2023-04-25T04:56:23;11.50;;;3.63;;
58581;SDS011;44361;51.476;5.700;2023-04-25T04:58:50;14.35;;;3.38;;
58581;SDS011;44361;51.476;5.700;2023-04-25T05:01:16;13.85;;;3.33;;
58581;SDS011;44361;51.476;5.700;2023-04-25T05:03:41;16.85;;;3.75;;
58581;SDS011;44361;51.476;5.700;2023-04-25T05:06:07;19.20;;;3.35;;
58581;SDS011;44361;51.476;5.700;2023-04-25T05:08:33;8.88;;;3.20;;
58581;SDS011;44361;51.476;5.700;2023-04-25T05:10:59;14.40;;;3.47;;
58581;SDS011;44361;51.476;5.700;2023-04-25T05:13:25;14.45;;;3.10;;
58581;SDS011;44361;51.476;5.700;2023-04-25T05:15:50;13.68;;;3.33;;
58581;SDS011;44361;51.476;5.700;2023-04-25T05:18:16;14.95;;;2.83;;
58581;SDS011;44361;51.476;5.700;2023-04-25T05:20:41;14.10;;;3.10;;
58581;SDS011;44361;51.476;5.700;2023-04-25T05:23:07;14.27;;;3.08;;
58581;SDS011;44361;51.476;5.700;2023-04-25T05:25:32;15.90;;;3.22;;
58581;SDS011;44361;51.476;5.700;2023-04-25T05:27:58;12.60;;;2.80;;
58581;SDS011;44361;51.476;5.700;2023-04-25T05:30:24;15.48;;;2.92;;
58581;SDS011;44361;51.476;5.700;2023-04-25T05:32:49;9.13;;;2.83;;
58581;SDS011;44361;51.476;5.700;2023-04-25T05:35:15;10.52;;;3.40;;
58581;SDS011;44361;51.476;5.700;2023-04-25T05:37:41;15.60;;;3.75;;
58581;SDS011;44361;51.476;5.700;2023-04-25T05:40:07;9.07;;;3.17;;
58581;SDS011;44361;51.476;5.700;2023-04-25T05:42:33;15.93;;;2.85;;
58581;SDS011;44361;51.476;5.700;2023-04-25T05:44:59;10.98;;;2.80;;
58581;SDS011;44361;51.476;5.700;2023-04-25T05:47:25;12.23;;;3.03;;
58581;SDS011;44361;51.476;5.700;2023-04-25T05:49:51;8.43;;;2.72;;
58581;SDS011;44361;51.476;5.700;2023-04-25T05:52:16;12.10;;;2.97;;
58581;SDS011;44361;51.476;5.700;2023-04-25T05:54:42;17.48;;;2.50;;
58581;SDS011;44361;51.476;5.700;2023-04-25T05:57:07;12.18;;;2.78;;
58581;SDS011;44361;51.476;5.700;2023-04-25T05:59:33;13.65;;;2.67;;
58581;SDS011;44361;51.476;5.700;2023-04-25T06:01:59;9.85;;;2.83;;
58581;SDS011;44361;51.476;5.700;2023-04-25T06:04:25;7.25;;;2.97;;
58581;SDS011;44361;51.476;5.700;2023-04-25T06:06:51;9.50;;;2.50;;
58581;SDS011;44361;51.476;5.700;2023-04-25T06:09:16;12.48;;;2.13;;
58581;SDS011;44361;51.476;5.700;2023-04-25T06:11:42;12.23;;;2.55;;
58581;SDS011;44361;51.476;5.700;2023-04-25T06:14:07;13.65;;;4.00;;
58581;SDS011;44361;51.476;5.700;2023-04-25T06:16:33;12.45;;;2.42;;
58581;SDS011;44361;51.476;5.700;2023-04-25T06:18:58;9.13;;;2.30;;
58581;SDS011;44361;51.476;5.700;2023-04-25T06:21:24;15.73;;;2.90;;
58581;SDS011;44361;51.476;5.700;2023-04-25T06:23:50;8.30;;;2.35;;
58581;SDS011;44361;51.476;5.700;2023-04-25T06:26:16;9.13;;;2.80;;
58581;SDS011;44361;51.476;5.700;2023-04-25T06:28:41;10.10;;;2.40;;
58581;SDS011;44361;51.476;5.700;2023-04-25T06:31:07;12.70;;;2.42;;
58581;SDS011;44361;51.476;5.700;2023-04-25T06:33:32;7.28;;;1.70;;
58581;SDS011;44361;51.476;5.700;2023-04-25T06:35:58;12.02;;;2.10;;
58581;SDS011;44361;51.476;5.700;2023-04-25T06:38:23;5.47;;;1.70;;
58581;SDS011;44361;51.476;5.700;2023-04-25T06:40:49;4.47;;;1.30;;
58581;SDS011;44361;51.476;5.700;2023-04-25T06:43:14;5.88;;;1.80;;
58581;SDS011;44361;51.476;5.700;2023-04-25T06:45:40;5.20;;;1.60;;
58581;SDS011;44361;51.476;5.700;2023-04-25T06:48:07;6.93;;;1.92;;
58581;SDS011;44361;51.476;5.700;2023-04-25T06:50:33;7.70;;;1.73;;
58581;SDS011;44361;51.476;5.700;2023-04-25T06:52:59;5.30;;;1.40;;
58581;SDS011;44361;51.476;5.700;2023-04-25T06:55:26;10.73;;;1.88;;
58581;SDS011;44361;51.476;5.700;2023-04-25T06:57:52;7.38;;;2.10;;
58581;SDS011;44361;51.476;5.700;2023-04-25T07:00:17;9.02;;;2.00;;
58581;SDS011;44361;51.476;5.700;2023-04-25T07:02:43;6.90;;;2.08;;
58581;SDS011;44361;51.476;5.700;2023-04-25T07:05:09;5.25;;;1.65;;
58581;SDS011;44361;51.476;5.700;2023-04-25T07:07:35;10.50;;;2.10;;
58581;SDS011;44361;51.476;5.700;2023-04-25T07:10:00;8.75;;;1.85;;
58581;SDS011;44361;51.476;5.700;2023-04-25T07:12:26;8.70;;;2.05;;
58581;SDS011;44361;51.476;5.700;2023-04-25T07:14:51;8.23;;;2.33;;
58581;SDS011;44361;51.476;5.700;2023-04-25T07:17:17;8.07;;;1.52;;
58581;SDS011;44361;51.476;5.700;2023-04-25T07:19:42;8.23;;;1.38;;
58581;SDS011;44361;51.476;5.700;2023-04-25T07:22:08;9.75;;;1.33;;
58581;SDS011;44361;51.476;5.700;2023-04-25T07:24:34;6.65;;;1.80;;
58581;SDS011;44361;51.476;5.700;2023-04-25T07:26:59;4.35;;;1.10;;
58581;SDS011;44361;51.476;5.700;2023-04-25T07:29:26;16.23;;;1.83;;
58581;SDS011;44361;51.476;5.700;2023-04-25T07:31:55;4.53;;;1.20;;
58581;SDS011;44361;51.476;5.700;2023-04-25T07:34:21;11.07;;;1.55;;
58581;SDS011;44361;51.476;5.700;2023-04-25T07:36:46;5.70;;;1.42;;
58581;SDS011;44361;51.476;5.700;2023-04-25T07:39:12;3.85;;;1.27;;
58581;SDS011;44361;51.476;5.700;2023-04-25T07:41:37;4.13;;;1.45;;
58581;SDS011;44361;51.476;5.700;2023-04-25T07:44:03;7.40;;;1.73;;
58581;SDS011;44361;51.476;5.700;2023-04-25T07:46:29;4.55;;;1.15;;
58581;SDS011;44361;51.476;5.700;2023-04-25T07:48:54;7.07;;;1.38;;
58581;SDS011;44361;51.476;5.700;2023-04-25T07:51:20;4.10;;;1.10;;
58581;SDS011;44361;51.476;5.700;2023-04-25T07:53:47;7.60;;;1.63;;
58581;SDS011;44361;51.476;5.700;2023-04-25T07:56:12;6.05;;;0.85;;
58581;SDS011;44361;51.476;5.700;2023-04-25T07:58:38;7.90;;;1.38;;
58581;SDS011;44361;51.476;5.700;2023-04-25T08:01:03;5.05;;;1.13;;
58581;SDS011;44361;51.476;5.700;2023-04-25T08:03:29;4.38;;;1.23;;
58581;SDS011;44361;51.476;5.700;2023-04-25T08:05:55;5.53;;;0.80;;
58581;SDS011;44361;51.476;5.700;2023-04-25T08:08:20;8.38;;;1.40;;
58581;SDS011;44361;51.476;5.700;2023-04-25T08:10:46;2.90;;;1.08;;
58581;SDS011;44361;51.476;5.700;2023-04-25T08:13:13;6.47;;;1.00;;
58581;SDS011;44361;51.476;5.700;2023-04-25T08:15:38;9.05;;;1.08;;
58581;SDS011;44361;51.476;5.700;2023-04-25T08:18:04;5.68;;;1.38;;
58581;SDS011;44361;51.476;5.700;2023-04-25T08:20:30;9.43;;;1.38;;
58581;SDS011;44361;51.476;5.700;2023-04-25T08:22:55;5.60;;;1.23;;
58581;SDS011;44361;51.476;5.700;2023-04-25T08:25:21;6.75;;;1.35;;
58581;SDS011;44361;51.476;5.700;2023-04-25T08:27:46;8.05;;;1.75;;
58581;SDS011;44361;51.476;5.700;2023-04-25T08:30:12;3.03;;;0.90;;
58581;SDS011;44361;51.476;5.700;2023-04-25T08:32:38;7.18;;;1.27;;
58581;SDS011;44361;51.476;5.700;2023-04-25T08:35:03;6.53;;;1.52;;
58581;SDS011;44361;51.476;5.700;2023-04-25T08:37:30;7.90;;;1.42;;
58581;SDS011;44361;51.476;5.700;2023-04-25T08:39:56;6.22;;;1.15;;
58581;SDS011;44361;51.476;5.700;2023-04-25T08:42:21;3.67;;;1.10;;
58581;SDS011;44361;51.476;5.700;2023-04-25T08:44:48;8.80;;;1.02;;
58581;SDS011;44361;51.476;5.700;2023-04-25T08:47:14;4.32;;;1.20;;
58581;SDS011;44361;51.476;5.700;2023-04-25T08:49:39;4.88;;;1.10;;
58581;SDS011;44361;51.476;5.700;2023-04-25T08:52:10;4.65;;;0.95;;
58581;SDS011;44361;51.476;5.700;2023-04-25T08:54:41;5.53;;;1.08;;
58581;SDS011;44361;51.476;5.700;2023-04-25T08:57:09;3.22;;;1.02;;
58581;SDS011;44361;51.476;5.700;2023-04-25T08:59:35;6.25;;;1.17;;
58581;SDS011;44361;51.476;5.700;2023-04-25T09:02:02;5.07;;;1.15;;
58581;SDS011;44361;51.476;5.700;2023-04-25T09:04:29;3.33;;;0.80;;
58581;SDS011;44361;51.476;5.700;2023-04-25T09:06:56;5.63;;;1.17;;
58581;SDS011;44361;51.476;5.700;2023-04-25T09:09:21;5.80;;;0.98;;
58581;SDS011;44361;51.476;5.700;2023-04-25T09:11:48;6.65;;;1.40;;
58581;SDS011;44361;51.476;5.700;2023-04-25T09:16:56;8.20;;;1.25;;
58581;SDS011;44361;51.476;5.700;2023-04-25T09:21:50;7.15;;;1.20;;
58581;SDS011;44361;51.476;5.700;2023-04-25T09:24:16;5.57;;;1.35;;
58581;SDS011;44361;51.476;5.700;2023-04-25T09:26:54;5.88;;;1.27;;
58581;SDS011;44361;51.476;5.700;2023-04-25T09:29:20;2.28;;;1.20;;
58581;SDS011;44361;51.476;5.700;2023-04-25T09:32:10;6.68;;;1.25;;
58581;SDS011;44361;51.476;5.700;2023-04-25T09:34:41;2.97;;;1.00;;
58581;SDS011;44361;51.476;5.700;2023-04-25T09:37:09;4.90;;;0.90;;
58581;SDS011;44361;51.476;5.700;2023-04-25T09:39:36;6.53;;;1.25;;
58581;SDS011;44361;51.476;5.700;2023-04-25T09:42:03;6.20;;;1.05;;
58581;SDS011;44361;51.476;5.700;2023-04-25T09:44:29;5.13;;;0.93;;
58581;SDS011;44361;51.476;5.700;2023-04-25T09:46:55;5.55;;;1.25;;
58581;SDS011;44361;51.476;5.700;2023-04-25T09:49:22;3.63;;;1.00;;
58581;SDS011;44361;51.476;5.700;2023-04-25T09:51:57;4.93;;;1.23;;
58581;SDS011;44361;51.476;5.700;2023-04-25T09:54:24;4.80;;;1.38;;
58581;SDS011;44361;51.476;5.700;2023-04-25T09:56:51;4.30;;;1.23;;
58581;SDS011;44361;51.476;5.700;2023-04-25T09:59:21;3.83;;;0.95;;
58581;SDS011;44361;51.476;5.700;2023-04-25T10:01:47;4.25;;;1.00;;
58581;SDS011;44361;51.476;5.700;2023-04-25T10:04:22;4.78;;;0.50;;
58581;SDS011;44361;51.476;5.700;2023-04-25T10:06:51;2.00;;;0.35;;
58581;SDS011;44361;51.476;5.700;2023-04-25T10:09:19;2.13;;;1.08;;
58581;SDS011;44361;51.476;5.700;2023-04-25T10:11:46;4.13;;;0.45;;
58581;SDS011;44361;51.476;5.700;2023-04-25T10:14:15;2.78;;;0.40;;
58581;SDS011;44361;51.476;5.700;2023-04-25T10:16:41;3.85;;;0.63;;
58581;SDS011;44361;51.476;5.700;2023-04-25T10:19:08;4.55;;;0.60;;
58581;SDS011;44361;51.476;5.700;2023-04-25T10:21:34;1.77;;;0.65;;
58581;SDS011;44361;51.476;5.700;2023-04-25T10:24:09;3.95;;;0.70;;
58581;SDS011;44361;51.476;5.700;2023-04-25T10:26:34;1.42;;;0.70;;
58581;SDS011;44361;51.476;5.700;2023-04-25T10:29:01;2.80;;;0.52;;
58581;SDS011;44361;51.476;5.700;2023-04-25T10:31:31;1.92;;;0.60;;
58581;SDS011;44361;51.476;5.700;2023-04-25T10:33:57;4.28;;;0.40;;
58581;SDS011;44361;51.476;5.700;2023-04-25T10:36:25;1.85;;;0.57;;
58581;SDS011;44361;51.476;5.700;2023-04-25T10:38:52;3.45;;;0.43;;
58581;SDS011;44361;51.476;5.700;2023-04-25T10:41:20;2.47;;;0.50;;
58581;SDS011;44361;51.476;5.700;2023-04-25T10:43:48;2.15;;;0.40;;
58581;SDS011;44361;51.476;5.700;2023-04-25T10:46:22;1.80;;;0.30;;
58581;SDS011;44361;51.476;5.700;2023-04-25T10:48:53;2.35;;;0.30;;
58581;SDS011;44361;51.476;5.700;2023-04-25T10:51:23;3.75;;;0.50;;
58581;SDS011;44361;51.476;5.700;2023-04-25T10:56:20;3.50;;;0.38;;
58581;SDS011;44361;51.476;5.700;2023-04-25T10:58:47;5.20;;;0.70;;
58581;SDS011;44361;51.476;5.700;2023-04-25T11:01:13;3.55;;;0.50;;
58581;SDS011;44361;51.476;5.700;2023-04-25T11:03:40;3.47;;;0.80;;
58581;SDS011;44361;51.476;5.700;2023-04-25T11:06:08;4.80;;;1.08;;
58581;SDS011;44361;51.476;5.700;2023-04-25T11:08:49;5.78;;;1.00;;
58581;SDS011;44361;51.476;5.700;2023-04-25T11:11:16;2.88;;;0.63;;
58581;SDS011;44361;51.476;5.700;2023-04-25T11:13:42;6.45;;;1.08;;
58581;SDS011;44361;51.476;5.700;2023-04-25T11:16:08;3.03;;;0.60;;
58581;SDS011;44361;51.476;5.700;2023-04-25T11:18:33;2.03;;;0.80;;
58581;SDS011;44361;51.476;5.700;2023-04-25T11:20:59;4.15;;;0.68;;
58581;SDS011;44361;51.476;5.700;2023-04-25T11:23:25;3.97;;;0.80;;
58581;SDS011;44361;51.476;5.700;2023-04-25T11:25:51;1.70;;;0.55;;
58581;SDS011;44361;51.476;5.700;2023-04-25T11:28:20;5.40;;;0.90;;
58581;SDS011;44361;51.476;5.700;2023-04-25T11:30:49;2.95;;;1.08;;
58581;SDS011;44361;51.476;5.700;2023-04-25T11:33:15;5.13;;;1.10;;
58581;SDS011;44361;51.476;5.700;2023-04-25T11:35:41;4.03;;;1.10;;
58581;SDS011;44361;51.476;5.700;2023-04-25T11:38:07;4.20;;;0.95;;
58581;SDS011;44361;51.476;5.700;2023-04-25T11:40:33;7.50;;;1.15;;
58581;SDS011;44361;51.476;5.700;2023-04-25T11:43:00;2.60;;;0.82;;
58581;SDS011;44361;51.476;5.700;2023-04-25T11:45:26;1.90;;;0.85;;
58581;SDS011;44361;51.476;5.700;2023-04-25T11:47:52;4.22;;;1.23;;
58581;SDS011;44361;51.476;5.700;2023-04-25T11:50:18;1.42;;;1.02;;
58581;SDS011;44361;51.476;5.700;2023-04-25T11:52:44;2.63;;;0.82;;
58581;SDS011;44361;51.476;5.700;2023-04-25T11:55:18;3.20;;;0.80;;
58581;SDS011;44361;51.476;5.700;2023-04-25T11:57:46;3.30;;;1.00;;
58581;SDS011;44361;51.476;5.700;2023-04-25T12:00:17;5.93;;;1.10;;
58581;SDS011;44361;51.476;5.700;2023-04-25T12:02:47;7.72;;;1.20;;
58581;SDS011;44361;51.476;5.700;2023-04-25T12:05:16;4.60;;;0.88;;
58581;SDS011;44361;51.476;5.700;2023-04-25T12:07:42;3.40;;;1.05;;
58581;SDS011;44361;51.476;5.700;2023-04-25T12:10:08;3.78;;;1.10;;
58581;SDS011;44361;51.476;5.700;2023-04-25T12:12:38;5.05;;;0.90;;
58581;SDS011;44361;51.476;5.700;2023-04-25T12:15:11;4.78;;;0.93;;
58581;SDS011;44361;51.476;5.700;2023-04-25T12:17:38;4.53;;;1.13;;
58581;SDS011;44361;51.476;5.700;2023-04-25T12:20:14;3.63;;;0.90;;
58581;SDS011;44361;51.476;5.700;2023-04-25T12:22:41;6.20;;;0.80;;
58581;SDS011;44361;51.476;5.700;2023-04-25T12:25:12;5.53;;;0.88;;
58581;SDS011;44361;51.476;5.700;2023-04-25T12:33:25;2.55;;;0.70;;
58581;SDS011;44361;51.476;5.700;2023-04-25T12:35:55;2.03;;;0.52;;
58581;SDS011;44361;51.476;5.700;2023-04-25T12:38:22;2.30;;;0.43;;
58581;SDS011;44361;51.476;5.700;2023-04-25T12:40:48;3.72;;;0.70;;
58581;SDS011;44361;51.476;5.700;2023-04-25T12:43:13;3.45;;;0.70;;
58581;SDS011;44361;51.476;5.700;2023-04-25T12:45:39;1.75;;;0.52;;
58581;SDS011;44361;51.476;5.700;2023-04-25T12:48:05;2.67;;;0.60;;
58581;SDS011;44361;51.476;5.700;2023-04-25T12:50:30;3.17;;;0.70;;
58581;SDS011;44361;51.476;5.700;2023-04-25T12:52:56;2.10;;;0.43;;
58581;SDS011;44361;51.476;5.700;2023-04-25T12:55:22;2.92;;;0.47;;
58581;SDS011;44361;51.476;5.700;2023-04-25T12:57:48;2.15;;;0.50;;
58581;SDS011;44361;51.476;5.700;2023-04-25T13:00:13;1.58;;;0.30;;
58581;SDS011;44361;51.476;5.700;2023-04-25T13:02:40;2.08;;;0.32;;
58581;SDS011;44361;51.476;5.700;2023-04-25T13:05:05;2.40;;;0.50;;
58581;SDS011;44361;51.476;5.700;2023-04-25T13:07:31;4.95;;;0.68;;
58581;SDS011;44361;51.476;5.700;2023-04-25T13:09:57;1.35;;;0.30;;
58581;SDS011;44361;51.476;5.700;2023-04-25T13:12:22;1.58;;;0.40;;
58581;SDS011;44361;51.476;5.700;2023-04-25T13:14:48;3.70;;;0.57;;
58581;SDS011;44361;51.476;5.700;2023-04-25T13:17:13;3.55;;;0.70;;
58581;SDS011;44361;51.476;5.700;2023-04-25T13:19:39;1.73;;;0.40;;
58581;SDS011;44361;51.476;5.700;2023-04-25T13:22:05;4.80;;;0.60;;
58581;SDS011;44361;51.476;5.700;2023-04-25T13:24:31;2.28;;;0.60;;
58581;SDS011;44361;51.476;5.700;2023-04-25T13:26:56;3.95;;;0.65;;
58581;SDS011;44361;51.476;5.700;2023-04-25T13:29:22;6.55;;;1.20;;
58581;SDS011;44361;51.476;5.700;2023-04-25T13:31:47;5.35;;;0.80;;
58581;SDS011;44361;51.476;5.700;2023-04-25T13:34:13;3.75;;;0.43;;
58581;SDS011;44361;51.476;5.700;2023-04-25T13:36:38;3.15;;;0.73;;
58581;SDS011;44361;51.476;5.700;2023-04-25T13:39:04;4.32;;;0.70;;
58581;SDS011;44361;51.476;5.700;2023-04-25T13:41:30;6.95;;;0.90;;
58581;SDS011;44361;51.476;5.700;2023-04-25T13:43:55;5.07;;;0.80;;
58581;SDS011;44361;51.476;5.700;2023-04-25T13:46:21;2.67;;;0.60;;
58581;SDS011;44361;51.476;5.700;2023-04-25T13:48:46;5.28;;;0.52;;
58581;SDS011;44361;51.476;5.700;2023-04-25T13:51:14;1.70;;;0.50;;
58581;SDS011;44361;51.476;5.700;2023-04-25T13:53:40;2.50;;;0.52;;
58581;SDS011;44361;51.476;5.700;2023-04-25T13:56:06;0.98;;;0.28;;
58581;SDS011;44361;51.476;5.700;2023-04-25T13:58:31;1.05;;;0.40;;
58581;SDS011;44361;51.476;5.700;2023-04-25T14:00:58;3.05;;;0.40;;
58581;SDS011;44361;51.476;5.700;2023-04-25T14:03:24;4.43;;;0.60;;
58581;SDS011;44361;51.476;5.700;2023-04-25T14:05:50;3.58;;;0.77;;
58581;SDS011;44361;51.476;5.700;2023-04-25T14:08:16;2.92;;;0.57;;
58581;SDS011;44361;51.476;5.700;2023-04-25T14:10:41;3.45;;;0.80;;
58581;SDS011;44361;51.476;5.700;2023-04-25T14:13:07;3.15;;;0.60;;
58581;SDS011;44361;51.476;5.700;2023-04-25T14:15:33;1.27;;;0.43;;
58581;SDS011;44361;51.476;5.700;2023-04-25T14:17:59;2.33;;;0.70;;
58581;SDS011;44361;51.476;5.700;2023-04-25T14:20:25;1.95;;;0.50;;
58581;SDS011;44361;51.476;5.700;2023-04-25T14:22:51;5.65;;;0.90;;
58581;SDS011;44361;51.476;5.700;2023-04-25T14:25:19;5.03;;;0.98;;
58581;SDS011;44361;51.476;5.700;2023-04-25T14:27:45;2.95;;;0.95;;
58581;SDS011;44361;51.476;5.700;2023-04-25T14:30:14;6.55;;;0.80;;
58581;SDS011;44361;51.476;5.700;2023-04-25T14:32:43;5.25;;;0.90;;
58581;SDS011;44361;51.476;5.700;2023-04-25T14:35:10;3.03;;;0.90;;
58581;SDS011;44361;51.476;5.700;2023-04-25T14:37:35;4.38;;;0.77;;
58581;SDS011;44361;51.476;5.700;2023-04-25T14:40:01;2.88;;;0.70;;
58581;SDS011;44361;51.476;5.700;2023-04-25T14:42:27;3.58;;;0.95;;
58581;SDS011;44361;51.476;5.700;2023-04-25T14:44:52;3.95;;;0.70;;
58581;SDS011;44361;51.476;5.700;2023-04-25T14:47:18;4.18;;;0.88;;
58581;SDS011;44361;51.476;5.700;2023-04-25T14:49:43;3.38;;;0.60;;
58581;SDS011;44361;51.476;5.700;2023-04-25T14:52:11;2.20;;;0.50;;